Time;durP1;ratioP1;P1;durP2;ratioP2;P2;SDS_P1;SDS_P2;PMS_P1;PMS_P2;Temp;Humidity;BMP_temperature;BMP_pressure;BME280_temperature;BME280_humidity;BME280_pressure;Samples;Min_cycle;Max_cycle;Signal;HPM_P1;HPM_P2
2021/06/26 00:00:16;;;;;;;13.73;10.97;;;19.20;99.90;;;;;;4962522;28;20199;-74
2021/06/26 00:02:42;;;;;;;14.80;11.10;;;18.80;99.90;;;;;;4964957;28;20249;-75
2021/06/26 00:05:10;;;;;;;13.10;10.60;;;18.80;99.90;;;;;;4963561;28;20628;-75
2021/06/26 00:07:36;;;;;;;12.10;10.93;;;18.90;99.90;;;;;;4961836;28;20230;-74
2021/06/26 00:10:05;;;;;;;13.53;12.03;;;18.70;99.90;;;;;;4965126;28;20813;-74
2021/06/26 00:12:32;;;;;;;11.50;10.30;;;18.70;99.90;;;;;;4964610;28;20201;-74
2021/06/26 00:14:57;;;;;;;12.40;11.10;;;18.80;99.90;;;;;;4965921;28;20477;-73
2021/06/26 00:17:23;;;;;;;12.80;11.50;;;19.10;99.90;;;;;;4958812;28;20904;-74
2021/06/26 00:19:49;;;;;;;13.10;10.80;;;19.30;99.90;;;;;;4965275;28;20199;-75
2021/06/26 00:22:14;;;;;;;12.50;11.30;;;19.00;99.90;;;;;;4959497;28;20237;-74
2021/06/26 00:24:40;;;;;;;13.87;12.47;;;19.00;99.90;;;;;;4964309;28;20217;-74
2021/06/26 00:27:06;;;;;;;13.90;11.63;;;18.80;99.90;;;;;;4963474;28;20232;-75
2021/06/26 00:29:32;;;;;;;23.10;12.80;;;18.80;99.90;;;;;;4958752;28;20202;-75
2021/06/26 00:31:58;;;;;;;13.73;11.17;;;18.70;99.90;;;;;;4960811;28;20475;-75
2021/06/26 00:34:23;;;;;;;13.60;12.20;;;18.70;99.90;;;;;;4961327;28;20194;-75
2021/06/26 00:36:49;;;;;;;12.20;11.00;;;18.60;99.90;;;;;;4963429;28;20219;-75
2021/06/26 00:39:15;;;;;;;18.40;10.60;;;18.60;99.90;;;;;;4960626;28;20189;-74
2021/06/26 00:41:40;;;;;;;12.50;11.20;;;18.70;99.90;;;;;;4962089;28;20234;-73
2021/06/26 00:44:08;;;;;;;12.80;10.77;;;18.90;99.90;;;;;;4965375;28;20632;-74
2021/06/26 00:46:34;;;;;;;14.10;10.17;;;18.80;99.90;;;;;;4960049;28;20242;-73
2021/06/26 00:48:59;;;;;;;12.67;11.13;;;18.70;99.90;;;;;;4960541;28;20634;-73
2021/06/26 00:51:25;;;;;;;13.47;10.53;;;18.90;99.90;;;;;;4962192;28;20437;-75
2021/06/26 00:53:51;;;;;;;12.27;10.93;;;18.60;99.90;;;;;;4962886;28;20201;-73
2021/06/26 00:56:17;;;;;;;14.57;11.20;;;18.80;99.90;;;;;;4960378;28;20210;-74
2021/06/26 00:58:44;;;;;;;13.73;11.50;;;18.90;99.90;;;;;;4960108;28;20609;-74
2021/06/26 01:01:12;;;;;;;12.13;10.93;;;18.90;99.90;;;;;;4962448;28;20445;-74
2021/06/26 01:03:37;;;;;;;11.17;10.00;;;18.90;99.90;;;;;;4962028;28;20527;-74
2021/06/26 01:06:03;;;;;;;12.20;10.90;;;18.80;99.90;;;;;;4943936;28;20979;-74
2021/06/26 01:08:29;;;;;;;12.00;10.60;;;19.00;99.90;;;;;;4962279;28;20266;-75
2021/06/26 01:10:55;;;;;;;11.53;9.57;;;19.00;99.90;;;;;;4961172;28;20462;-75
2021/06/26 01:13:20;;;;;;;10.83;9.37;;;19.10;99.90;;;;;;4960815;28;20269;-74
2021/06/26 01:15:49;;;;;;;11.00;9.60;;;19.20;99.90;;;;;;4957680;28;20806;-75
2021/06/26 01:18:15;;;;;;;10.57;9.57;;;19.10;99.90;;;;;;4961964;28;20225;-75
2021/06/26 01:20:40;;;;;;;10.23;8.90;;;18.90;99.90;;;;;;4963208;28;20430;-73
2021/06/26 01:23:06;;;;;;;16.67;9.53;;;18.90;99.90;;;;;;4957799;28;20206;-74
2021/06/26 01:25:32;;;;;;;12.80;10.80;;;18.80;99.90;;;;;;4961656;28;20281;-74
2021/06/26 01:27:59;;;;;;;12.00;10.77;;;18.40;99.90;;;;;;4960909;28;20218;-74
2021/06/26 01:30:31;;;;;;;12.20;10.53;;;18.40;99.90;;;;;;4962098;28;20446;-74
2021/06/26 01:32:57;;;;;;;11.93;10.80;;;18.50;99.90;;;;;;4959558;28;20830;-75
2021/06/26 01:35:24;;;;;;;11.47;10.30;;;18.50;99.90;;;;;;4960438;28;20434;-74
2021/06/26 01:37:49;;;;;;;13.43;11.90;;;18.40;99.90;;;;;;4944268;28;20511;-74
2021/06/26 01:40:20;;;;;;;12.40;11.00;;;18.40;99.90;;;;;;4958399;28;20977;-73
2021/06/26 01:42:47;;;;;;;12.53;11.07;;;18.60;99.90;;;;;;4965395;28;20225;-74
2021/06/26 01:45:14;;;;;;;14.77;11.70;;;18.60;99.90;;;;;;4945646;28;20536;-74
2021/06/26 01:47:51;;;;;;;13.80;12.40;;;18.60;99.90;;;;;;4962556;28;20501;-75
2021/06/26 01:50:19;;;;;;;12.27;11.00;;;18.60;99.90;;;;;;4963537;28;20496;-74
2021/06/26 01:52:46;;;;;;;13.77;12.37;;;18.50;99.90;;;;;;4960735;28;20447;-74
2021/06/26 01:55:13;;;;;;;14.07;11.60;;;18.50;99.90;;;;;;4962812;28;20433;-74
2021/06/26 01:57:40;;;;;;;13.00;11.70;;;18.50;99.90;;;;;;4961605;28;20464;-74
2021/06/26 02:00:07;;;;;;;12.40;10.80;;;18.40;99.90;;;;;;4961835;28;20430;-73
2021/06/26 02:02:33;;;;;;;13.00;11.70;;;18.30;99.90;;;;;;4960368;28;20446;-74
2021/06/26 02:04:58;;;;;;;12.20;10.43;;;18.30;99.90;;;;;;4960872;28;20478;-73
2021/06/26 02:07:24;;;;;;;11.43;10.30;;;18.40;99.90;;;;;;4964180;28;20460;-75
2021/06/26 02:09:50;;;;;;;10.30;9.23;;;18.50;99.90;;;;;;4960440;28;20199;-74
2021/06/26 02:12:16;;;;;;;10.10;9.17;;;18.40;99.90;;;;;;4963945;28;20198;-74
2021/06/26 02:14:41;;;;;;;9.87;8.90;;;18.20;99.90;;;;;;4957740;28;20198;-74
2021/06/26 02:17:07;;;;;;;10.07;9.07;;;18.40;99.90;;;;;;4962115;28;20469;-74
2021/06/26 02:19:33;;;;;;;12.57;10.10;;;18.50;99.90;;;;;;4963134;28;20201;-74
2021/06/26 02:21:59;;;;;;;9.60;8.70;;;18.50;99.90;;;;;;4944471;28;20213;-74
2021/06/26 02:24:24;;;;;;;10.30;9.07;;;18.40;99.90;;;;;;4962241;28;20202;-74
2021/06/26 02:26:50;;;;;;;12.90;9.17;;;18.30;99.90;;;;;;4958688;28;20213;-76
2021/06/26 02:29:16;;;;;;;9.80;8.80;;;18.40;99.90;;;;;;4961181;28;20190;-73
2021/06/26 02:31:41;;;;;;;12.37;9.13;;;18.20;99.90;;;;;;4961814;28;20222;-73
2021/06/26 02:34:10;;;;;;;10.80;9.70;;;18.00;99.90;;;;;;4957658;28;20201;-75
2021/06/26 02:36:35;;;;;;;11.07;9.27;;;17.90;99.90;;;;;;4961644;28;20384;-73
2021/06/26 02:39:01;;;;;;;12.40;9.37;;;17.80;99.90;;;;;;4940784;28;20915;-74
2021/06/26 02:41:26;;;;;;;10.30;8.90;;;17.80;99.90;;;;;;4959355;28;20281;-75
2021/06/26 02:43:52;;;;;;;20.30;10.20;;;17.90;99.90;;;;;;4955916;28;20277;-74
2021/06/26 02:46:18;;;;;;;13.00;9.13;;;17.70;99.90;;;;;;4962270;28;20255;-75
2021/06/26 02:48:44;;;;;;;10.27;9.27;;;17.30;99.90;;;;;;4956459;28;20194;-73
2021/06/26 02:51:10;;;;;;;12.23;9.50;;;17.10;99.90;;;;;;4956236;28;20187;-74
2021/06/26 02:53:35;;;;;;;9.60;8.70;;;17.20;99.90;;;;;;4963817;28;20187;-74
2021/06/26 02:56:01;;;;;;;9.13;8.33;;;17.40;99.90;;;;;;4963114;28;20446;-74
2021/06/26 02:58:27;;;;;;;9.73;8.20;;;17.50;99.90;;;;;;4946782;28;20209;-75
2021/06/26 03:00:53;;;;;;;9.83;8.50;;;17.70;99.90;;;;;;4963488;28;20195;-75
2021/06/26 03:03:18;;;;;;;11.53;10.03;;;17.30;99.90;;;;;;4965460;28;20203;-74
2021/06/26 03:05:44;;;;;;;11.47;8.80;;;17.10;99.90;;;;;;4966514;28;20218;-74
2021/06/26 03:08:10;;;;;;;12.00;9.30;;;17.10;99.90;;;;;;4960706;28;20219;-74
2021/06/26 03:10:35;;;;;;;10.43;8.77;;;17.10;99.90;;;;;;4964603;28;20206;-74
2021/06/26 03:13:01;;;;;;;9.67;8.20;;;17.10;99.90;;;;;;4965072;28;20187;-74
2021/06/26 03:15:27;;;;;;;11.17;8.27;;;17.20;99.90;;;;;;4964278;28;20249;-76
2021/06/26 03:17:52;;;;;;;9.17;8.20;;;17.20;99.90;;;;;;4965605;28;20214;-76
2021/06/26 03:20:18;;;;;;;9.53;8.53;;;17.20;99.90;;;;;;4963893;28;20609;-75
2021/06/26 03:22:43;;;;;;;9.50;8.40;;;17.20;99.90;;;;;;4964138;28;20187;-75
2021/06/26 03:25:13;;;;;;;8.90;7.93;;;17.20;99.90;;;;;;4961028;28;20210;-73
2021/06/26 03:27:39;;;;;;;10.00;8.80;;;17.50;99.90;;;;;;4965289;28;20202;-75
2021/06/26 03:30:06;;;;;;;9.50;7.83;;;17.20;99.90;;;;;;4962630;28;20433;-73
2021/06/26 03:32:32;;;;;;;9.50;8.60;;;17.20;99.90;;;;;;4948176;28;20485;-74
2021/06/26 03:34:58;;;;;;;9.20;8.30;;;17.20;99.90;;;;;;4964097;28;20429;-76
2021/06/26 03:37:23;;;;;;;9.10;8.20;;;17.50;99.90;;;;;;4963654;28;20484;-75
2021/06/26 03:39:49;;;;;;;9.07;8.13;;;17.60;99.90;;;;;;4964630;28;20198;-73
2021/06/26 03:42:15;;;;;;;9.10;8.20;;;17.60;99.90;;;;;;4960480;28;20301;-75
2021/06/26 03:44:40;;;;;;;8.73;7.90;;;17.70;99.90;;;;;;4962483;28;20807;-73
2021/06/26 03:47:07;;;;;;;11.43;8.13;;;17.90;99.90;;;;;;4966363;28;20253;-74
2021/06/26 03:49:35;;;;;;;8.97;7.50;;;17.80;99.90;;;;;;4960900;28;20311;-73
2021/06/26 03:52:02;;;;;;;7.83;7.13;;;17.90;99.90;;;;;;4963531;28;20418;-76
2021/06/26 03:54:27;;;;;;;8.80;7.90;;;17.80;99.90;;;;;;4959049;28;20971;-75
2021/06/26 03:56:53;;;;;;;8.57;7.50;;;17.80;99.90;;;;;;4962162;28;20475;-74
2021/06/26 03:59:19;;;;;;;8.93;8.07;;;17.80;99.90;;;;;;4964959;28;20676;-75
2021/06/26 04:01:44;;;;;;;9.60;8.70;;;17.60;99.90;;;;;;4963832;28;20553;-73
2021/06/26 04:04:10;;;;;;;11.80;8.30;;;17.50;99.90;;;;;;4965661;28;20668;-75
2021/06/26 04:06:36;;;;;;;8.53;7.60;;;17.60;99.90;;;;;;4959551;28;20241;-74
2021/06/26 04:09:03;;;;;;;13.43;8.27;;;17.60;99.90;;;;;;4964229;28;20206;-74
2021/06/26 04:11:29;;;;;;;8.97;8.07;;;17.90;99.90;;;;;;4962278;28;20434;-74
2021/06/26 04:13:54;;;;;;;9.83;7.87;;;17.60;99.90;;;;;;4953507;28;20446;-75
2021/06/26 04:16:20;;;;;;;9.90;8.00;;;17.80;99.90;;;;;;4962017;28;20705;-76
2021/06/26 04:18:46;;;;;;;7.73;6.93;;;17.90;99.90;;;;;;4960670;28;20191;-74
2021/06/26 04:21:11;;;;;;;8.70;7.40;;;18.20;99.90;;;;;;4963340;28;20186;-75
2021/06/26 04:23:37;;;;;;;8.27;7.47;;;18.10;99.90;;;;;;4962117;28;20783;-75
2021/06/26 04:26:03;;;;;;;10.90;8.33;;;18.30;99.90;;;;;;4960261;28;20245;-76
2021/06/26 04:28:29;;;;;;;9.37;7.27;;;18.40;99.90;;;;;;4962676;28;20178;-73
2021/06/26 04:30:55;;;;;;;8.80;7.07;;;18.40;99.90;;;;;;4961991;28;20796;-75
2021/06/26 04:33:20;;;;;;;8.57;7.87;;;18.20;99.90;;;;;;4962512;28;20179;-75
2021/06/26 04:35:46;;;;;;;8.40;7.60;;;18.30;99.90;;;;;;4937165;28;20214;-76
2021/06/26 04:38:12;;;;;;;7.73;6.97;;;18.50;99.90;;;;;;4962883;28;20294;-75
2021/06/26 04:40:37;;;;;;;8.07;7.30;;;18.50;99.90;;;;;;4940244;28;20201;-74
2021/06/26 04:43:04;;;;;;;9.67;7.63;;;18.70;99.90;;;;;;4963131;28;20219;-74
2021/06/26 04:45:30;;;;;;;7.90;7.10;;;18.70;99.90;;;;;;4972625;28;20202;-75
2021/06/26 04:48:00;;;;;;;15.00;7.67;;;18.80;99.90;;;;;;4960736;28;21314;-76
2021/06/26 04:50:26;;;;;;;7.97;7.17;;;18.70;99.90;;;;;;4959705;28;20438;-74
2021/06/26 04:52:52;;;;;;;10.90;8.00;;;18.90;99.90;;;;;;4961682;28;20433;-74
2021/06/26 04:55:18;;;;;;;7.80;7.10;;;18.80;99.90;;;;;;4960311;28;20443;-75
2021/06/26 04:57:44;;;;;;;8.70;7.23;;;18.80;99.90;;;;;;4961278;28;20229;-75
2021/06/26 05:00:12;;;;;;;7.97;7.17;;;18.80;99.90;;;;;;4958350;28;20191;-75
2021/06/26 05:02:37;;;;;;;7.83;7.03;;;18.80;99.90;;;;;;4960809;28;20174;-75
2021/06/26 05:05:04;;;;;;;8.37;7.47;;;18.80;99.90;;;;;;4960184;28;20502;-75
2021/06/26 05:07:30;;;;;;;10.50;7.13;;;18.60;99.90;;;;;;4961992;28;20208;-74
2021/06/26 05:09:56;;;;;;;7.77;7.07;;;18.80;99.90;;;;;;4964034;28;20517;-77
2021/06/26 05:12:22;;;;;;;8.40;7.00;;;18.90;99.90;;;;;;4959335;28;20656;-74
2021/06/26 05:14:47;;;;;;;7.93;7.13;;;19.00;99.90;;;;;;4960704;28;20199;-73
2021/06/26 05:17:13;;;;;;;8.13;7.33;;;18.90;99.90;;;;;;4954840;28;20215;-75
2021/06/26 05:19:39;;;;;;;8.67;7.80;;;19.00;99.90;;;;;;4956328;28;20730;-75
2021/06/26 05:22:04;;;;;;;8.20;7.37;;;18.90;99.90;;;;;;4959064;28;20183;-75
2021/06/26 05:24:30;;;;;;;13.63;7.37;;;18.80;99.90;;;;;;4960378;28;20191;-75
2021/06/26 05:26:56;;;;;;;8.17;7.37;;;18.90;99.90;;;;;;4961182;28;20766;-74
2021/06/26 05:29:21;;;;;;;8.57;7.43;;;19.10;99.90;;;;;;4962512;28;20179;-73
2021/06/26 05:31:47;;;;;;;8.00;7.20;;;19.10;99.90;;;;;;4947680;28;20214;-72
2021/06/26 05:34:13;;;;;;;8.97;8.07;;;19.20;99.90;;;;;;4958601;28;20245;-75
2021/06/26 05:36:41;;;;;;;8.67;7.10;;;19.30;99.90;;;;;;4941503;28;20284;-75
2021/06/26 05:39:07;;;;;;;8.00;7.20;;;19.20;99.90;;;;;;4942585;28;20186;-74
2021/06/26 05:41:33;;;;;;;7.90;7.17;;;19.30;99.90;;;;;;4959639;28;20959;-75
2021/06/26 05:43:58;;;;;;;10.53;8.13;;;19.30;99.90;;;;;;4961227;28;20270;-74
2021/06/26 05:46:24;;;;;;;9.13;8.07;;;19.20;99.90;;;;;;4961331;28;20229;-74
2021/06/26 05:48:50;;;;;;;8.53;7.70;;;19.20;99.90;;;;;;4960022;28;20559;-76
2021/06/26 05:51:17;;;;;;;12.43;6.90;;;19.20;99.90;;;;;;4958054;28;20189;-77
2021/06/26 05:53:44;;;;;;;8.70;7.57;;;19.30;99.90;;;;;;4958922;28;20190;-73
2021/06/26 05:56:11;;;;;;;8.60;7.80;;;19.40;99.90;;;;;;4961275;28;20684;-73
2021/06/26 05:58:37;;;;;;;8.67;7.87;;;19.30;99.90;;;;;;4956615;28;20435;-72
2021/06/26 06:01:06;;;;;;;8.13;7.10;;;19.40;99.90;;;;;;4956266;28;20454;-73
2021/06/26 06:03:32;;;;;;;10.63;8.10;;;19.40;99.90;;;;;;4956228;28;20197;-73
2021/06/26 06:05:57;;;;;;;8.37;7.00;;;19.50;99.90;;;;;;4944429;28;20469;-74
2021/06/26 06:08:23;;;;;;;9.47;7.57;;;19.40;99.90;;;;;;4958500;28;20445;-74
2021/06/26 06:10:49;;;;;;;7.63;6.93;;;19.60;99.90;;;;;;4958090;28;20663;-75
2021/06/26 06:13:17;;;;;;;9.67;7.57;;;19.70;99.90;;;;;;4960152;28;20426;-73
2021/06/26 06:15:43;;;;;;;9.57;8.57;;;19.70;99.90;;;;;;4954274;28;20190;-73
2021/06/26 06:18:10;;;;;;;9.07;8.17;;;19.70;99.90;;;;;;4963486;28;20504;-74
2021/06/26 06:20:36;;;;;;;8.70;7.43;;;19.90;99.90;;;;;;4962197;28;20445;-74
2021/06/26 06:23:03;;;;;;;8.70;7.53;;;20.10;99.90;;;;;;4965083;28;20449;-76
2021/06/26 06:25:29;;;;;;;8.27;7.23;;;20.20;99.90;;;;;;4962420;28;20465;-73
2021/06/26 06:27:55;;;;;;;9.83;7.80;;;20.30;99.90;;;;;;4962053;28;20485;-74
2021/06/26 06:30:21;;;;;;;7.90;7.20;;;20.30;99.90;;;;;;4965507;28;20180;-74
2021/06/26 06:32:49;;;;;;;8.53;7.20;;;20.30;99.90;;;;;;4959764;28;20222;-75
2021/06/26 06:35:15;;;;;;;8.47;7.00;;;20.50;99.90;;;;;;4945689;28;20442;-75
2021/06/26 06:37:42;;;;;;;8.17;7.47;;;20.40;99.90;;;;;;4960676;28;20507;-74
2021/06/26 06:40:11;;;;;;;8.47;7.50;;;20.60;99.90;;;;;;4964141;28;20675;-73
2021/06/26 06:42:37;;;;;;;10.60;7.53;;;20.60;99.90;;;;;;4962679;28;20728;-73
2021/06/26 06:45:05;;;;;;;8.90;6.70;;;20.80;99.90;;;;;;4964540;28;20466;-73
2021/06/26 06:47:31;;;;;;;9.30;8.30;;;20.90;99.90;;;;;;4959488;28;21032;-74
2021/06/26 06:49:56;;;;;;;11.50;7.90;;;21.10;99.90;;;;;;4961108;28;20434;-75
2021/06/26 06:52:22;;;;;;;9.50;7.10;;;21.30;99.90;;;;;;4963007;28;20454;-75
2021/06/26 06:54:48;;;;;;;8.73;7.90;;;21.30;99.90;;;;;;4961126;28;20187;-76
2021/06/26 06:57:13;;;;;;;8.60;7.90;;;21.40;99.90;;;;;;4963823;28;20321;-73
2021/06/26 06:59:39;;;;;;;8.40;7.63;;;21.40;99.90;;;;;;4958710;28;20214;-72
2021/06/26 07:02:05;;;;;;;7.83;7.03;;;21.40;99.90;;;;;;4962234;28;20932;-71
2021/06/26 07:04:30;;;;;;;8.83;8.00;;;21.50;99.90;;;;;;4960835;28;20909;-72
2021/06/26 07:06:57;;;;;;;7.67;6.90;;;21.50;99.90;;;;;;4965395;28;20274;-74
2021/06/26 07:09:23;;;;;;;8.03;7.23;;;21.70;99.90;;;;;;4977243;28;20203;-73
2021/06/26 07:11:49;;;;;;;13.97;8.50;;;21.60;99.90;;;;;;4960146;28;20511;-73
2021/06/26 07:14:15;;;;;;;9.53;8.00;;;21.60;99.90;;;;;;4964710;28;20434;-73
2021/06/26 07:16:41;;;;;;;8.80;7.90;;;21.80;99.90;;;;;;4960778;28;20233;-72
2021/06/26 07:19:06;;;;;;;9.10;8.07;;;21.90;99.90;;;;;;4965486;28;20260;-72
2021/06/26 07:21:33;;;;;;;8.93;8.03;;;21.80;99.90;;;;;;4963925;28;20233;-74
2021/06/26 07:23:59;;;;;;;9.73;8.73;;;21.70;99.90;;;;;;4964146;28;20203;-73
2021/06/26 07:26:24;;;;;;;11.07;8.07;;;21.80;99.90;;;;;;4962326;28;20484;-74
2021/06/26 07:28:50;;;;;;;9.90;8.90;;;21.90;99.90;;;;;;4959935;28;20268;-73
2021/06/26 07:31:15;;;;;;;9.30;8.40;;;22.00;99.90;;;;;;4943240;28;20273;-73
2021/06/26 07:33:41;;;;;;;8.07;7.37;;;22.20;99.90;;;;;;4960917;28;20193;-74
2021/06/26 07:36:07;;;;;;;8.73;7.93;;;22.10;99.90;;;;;;4964360;28;20588;-74
2021/06/26 07:38:33;;;;;;;9.47;8.57;;;22.30;99.90;;;;;;4962748;28;20229;-74
2021/06/26 07:40:58;;;;;;;14.30;12.87;;;22.50;99.90;;;;;;4964924;28;20202;-75
2021/06/26 07:43:25;;;;;;;20.20;17.93;;;22.60;99.90;;;;;;4961894;28;20198;-74
2021/06/26 07:45:51;;;;;;;9.37;8.37;;;22.50;99.90;;;;;;4961576;28;20254;-74
2021/06/26 07:48:17;;;;;;;10.10;8.70;;;22.40;99.90;;;;;;4964437;28;20434;-74
2021/06/26 07:50:43;;;;;;;8.93;8.13;;;22.60;99.90;;;;;;4962657;28;20445;-73
2021/06/26 07:53:08;;;;;;;8.50;7.80;;;22.60;99.90;;;;;;4962985;28;20187;-74
2021/06/26 07:55:34;;;;;;;10.23;9.30;;;22.60;99.90;;;;;;4964551;28;20225;-73
2021/06/26 07:58:00;;;;;;;11.07;9.97;;;22.60;99.90;;;;;;4963391;28;20214;-75
2021/06/26 08:00:26;;;;;;;10.70;9.27;;;22.60;99.90;;;;;;4965551;28;20709;-73
2021/06/26 08:02:51;;;;;;;14.53;12.17;;;22.60;99.90;;;;;;4960648;28;20198;-75
2021/06/26 08:05:17;;;;;;;11.20;10.10;;;22.70;99.90;;;;;;4964791;28;20222;-74
2021/06/26 08:07:43;;;;;;;14.90;13.37;;;22.80;99.90;;;;;;4962683;28;20289;-74
2021/06/26 08:10:09;;;;;;;10.37;9.47;;;22.80;99.90;;;;;;4962519;28;20245;-73
2021/06/26 08:12:35;;;;;;;9.10;8.20;;;22.90;99.90;;;;;;4965826;28;20190;-71
2021/06/26 08:15:01;;;;;;;9.27;8.27;;;22.90;99.90;;;;;;4964445;28;20532;-72
2021/06/26 08:17:27;;;;;;;8.60;7.70;;;22.80;99.90;;;;;;4963122;28;20721;-74
2021/06/26 08:19:53;;;;;;;10.47;9.37;;;22.90;99.90;;;;;;4961153;28;20449;-73
2021/06/26 08:22:19;;;;;;;8.83;8.13;;;22.90;99.90;;;;;;4960647;28;20434;-75
2021/06/26 08:24:47;;;;;;;8.97;8.17;;;23.10;99.90;;;;;;4960393;28;20266;-76
2021/06/26 08:27:13;;;;;;;9.30;8.40;;;23.20;99.90;;;;;;4961692;28;20468;-74
2021/06/26 08:29:39;;;;;;;8.83;8.03;;;23.30;99.90;;;;;;4961596;28;20909;-74
2021/06/26 08:32:05;;;;;;;9.73;8.60;;;23.40;99.90;;;;;;4951045;28;20206;-74
2021/06/26 08:34:31;;;;;;;9.93;8.63;;;23.60;99.90;;;;;;4933913;28;20226;-75
2021/06/26 08:36:56;;;;;;;8.30;7.60;;;23.80;99.90;;;;;;4963284;28;20513;-75
2021/06/26 08:39:23;;;;;;;8.20;7.40;;;23.80;99.90;;;;;;4961269;28;20252;-74
2021/06/26 08:41:49;;;;;;;14.00;12.40;;;23.80;99.90;;;;;;4957335;28;20183;-75
2021/06/26 08:44:17;;;;;;;10.10;9.13;;;24.00;99.90;;;;;;4960221;28;21988;-74
2021/06/26 08:46:52;;;;;;;9.33;8.40;;;24.10;99.90;;;;;;4966177;28;20473;-75
2021/06/26 08:49:18;;;;;;;8.67;7.87;;;24.20;99.90;;;;;;4957458;28;20444;-75
2021/06/26 08:51:44;;;;;;;9.13;8.33;;;24.20;99.90;;;;;;4955611;28;20975;-76
2021/06/26 08:54:12;;;;;;;8.90;8.10;;;24.00;99.90;;;;;;4972192;28;20442;-74
2021/06/26 08:56:40;;;;;;;9.00;7.90;;;24.10;99.90;;;;;;4957737;28;20221;-74
2021/06/26 08:59:06;;;;;;;9.27;8.20;;;24.20;99.90;;;;;;4960447;28;20449;-75
2021/06/26 09:01:34;;;;;;;9.70;8.30;;;24.40;99.90;;;;;;4957693;28;20438;-73
2021/06/26 09:04:08;;;;;;;10.90;9.80;;;24.40;99.90;;;;;;4948867;28;20218;-75
2021/06/26 09:06:54;;;;;;;9.07;8.27;;;24.50;99.90;;;;;;4943656;28;21279;-74
2021/06/26 09:09:34;;;;;;;10.17;8.60;;;24.30;99.90;;;;;;4955042;28;20449;-75
2021/06/26 09:12:11;;;;;;;12.40;11.20;;;24.30;99.90;;;;;;4960542;28;20429;-74
2021/06/26 09:14:39;;;;;;;10.43;8.67;;;24.30;99.90;;;;;;4961382;28;20459;-74
2021/06/26 09:17:06;;;;;;;9.30;8.50;;;24.30;99.90;;;;;;4959621;28;20541;-74
2021/06/26 09:19:34;;;;;;;9.80;8.80;;;24.20;99.90;;;;;;4960723;28;20437;-73
2021/06/26 09:22:10;;;;;;;10.43;8.50;;;24.20;99.90;;;;;;4959377;28;20964;-74
2021/06/26 09:24:46;;;;;;;9.40;8.50;;;24.10;99.90;;;;;;4959269;28;20505;-73
2021/06/26 09:27:14;;;;;;;8.80;8.00;;;24.10;99.90;;;;;;4961585;28;20465;-73
2021/06/26 09:29:54;;;;;;;10.87;9.57;;;24.00;99.90;;;;;;4958245;28;20430;-74
2021/06/26 09:32:28;;;;;;;9.10;8.20;;;24.00;99.90;;;;;;4962347;28;20437;-75
2021/06/26 09:34:55;;;;;;;10.73;8.37;;;24.00;99.90;;;;;;4961131;28;20522;-74
2021/06/26 09:37:33;;;;;;;10.80;9.53;;;23.90;99.90;;;;;;4962180;28;20464;-73
2021/06/26 09:40:00;;;;;;;8.97;8.17;;;23.80;99.90;;;;;;4951345;28;20812;-75
2021/06/26 09:42:32;;;;;;;9.10;8.20;;;23.90;99.90;;;;;;4958380;28;20463;-74
2021/06/26 09:45:03;;;;;;;9.47;8.67;;;23.90;99.90;;;;;;4960862;28;20480;-74
2021/06/26 09:47:42;;;;;;;9.30;8.40;;;23.80;99.90;;;;;;4939618;28;20449;-73
2021/06/26 09:50:22;;;;;;;8.93;8.13;;;23.90;99.90;;;;;;4941029;28;20477;-75
2021/06/26 09:52:48;;;;;;;9.53;8.60;;;23.90;99.90;;;;;;4941417;28;21194;-74
2021/06/26 09:55:14;;;;;;;9.23;8.33;;;23.90;99.90;;;;;;4956122;28;20439;-75
2021/06/26 09:57:40;;;;;;;10.57;9.30;;;23.90;99.90;;;;;;4960166;28;20517;-77
2021/06/26 10:00:08;;;;;;;9.33;8.47;;;24.00;99.90;;;;;;4952693;28;20252;-75
2021/06/26 10:02:34;;;;;;;11.83;7.30;;;24.00;99.90;;;;;;4956660;28;20278;-75
2021/06/26 10:05:01;;;;;;;9.23;8.30;;;23.90;99.90;;;;;;4960049;28;20552;-73
2021/06/26 10:07:30;;;;;;;9.30;8.40;;;24.00;99.90;;;;;;4960251;28;20476;-74
2021/06/26 10:09:56;;;;;;;10.43;8.13;;;24.10;99.90;;;;;;4960782;28;20434;-76
2021/06/26 10:12:23;;;;;;;8.83;8.03;;;24.20;99.90;;;;;;4959827;28;20943;-77
2021/06/26 10:14:49;;;;;;;9.13;8.33;;;24.30;99.90;;;;;;4946387;28;20433;-77
2021/06/26 10:17:15;;;;;;;9.27;8.43;;;24.50;99.90;;;;;;4960892;28;20817;-77
2021/06/26 10:19:42;;;;;;;8.63;7.83;;;24.60;99.90;;;;;;4960191;28;20434;-77
2021/06/26 10:22:08;;;;;;;9.00;8.10;;;24.80;99.90;;;;;;4964264;28;20421;-77
2021/06/26 10:24:35;;;;;;;9.30;8.40;;;24.90;99.90;;;;;;4952525;28;20461;-78
2021/06/26 10:27:01;;;;;;;9.40;8.50;;;25.00;99.90;;;;;;4958422;28;20481;-77
2021/06/26 10:29:36;;;;;;;9.07;8.03;;;25.00;99.90;;;;;;4958547;28;20537;-78
2021/06/26 10:32:10;;;;;;;9.00;8.30;;;25.20;99.90;;;;;;4961047;28;20433;-76
2021/06/26 10:34:42;;;;;;;8.70;7.90;;;25.30;99.90;;;;;;4960966;28;20445;-77
2021/06/26 10:37:18;;;;;;;8.40;7.60;;;25.40;99.90;;;;;;4957544;28;21091;-77
2021/06/26 10:39:45;;;;;;;8.10;7.50;;;25.40;99.90;;;;;;4960246;28;20484;-78
2021/06/26 10:42:14;;;;;;;7.53;6.83;;;25.50;99.90;;;;;;4960533;28;20433;-78
2021/06/26 10:44:49;;;;;;;7.87;7.13;;;25.50;99.90;;;;;;4958940;28;20453;-77
2021/06/26 10:47:16;;;;;;;7.83;7.03;;;25.70;99.90;;;;;;4957144;28;20825;-77
2021/06/26 10:49:43;;;;;;;8.40;7.03;;;25.80;99.90;;;;;;4961225;28;20430;-76
2021/06/26 10:52:15;;;;;;;10.77;7.40;;;25.90;99.90;;;;;;4952996;28;20544;-74
2021/06/26 10:54:58;;;;;;;8.33;7.30;;;26.00;99.90;;;;;;4954398;28;20441;-74
2021/06/26 10:57:25;;;;;;;8.47;7.67;;;25.90;99.90;;;;;;4955835;28;20472;-74
2021/06/26 10:59:58;;;;;;;8.43;7.63;;;26.10;99.90;;;;;;4959941;28;20545;-74
2021/06/26 11:02:24;;;;;;;7.53;6.57;;;26.10;99.90;;;;;;4956293;28;20430;-76
2021/06/26 11:04:50;;;;;;;7.80;7.20;;;26.00;99.90;;;;;;4959899;28;20431;-75
2021/06/26 11:07:17;;;;;;;8.23;7.50;;;26.00;99.90;;;;;;4959649;28;20973;-75
2021/06/26 11:09:46;;;;;;;8.17;7.37;;;26.00;99.90;;;;;;4958117;28;20565;-76
2021/06/26 11:12:20;;;;;;;8.20;7.30;;;26.10;99.90;;;;;;4961323;28;20430;-75
2021/06/26 11:14:57;;;;;;;7.17;6.47;;;26.10;99.90;;;;;;4959531;28;20958;-73
2021/06/26 11:17:37;;;;;;;7.23;6.60;;;25.70;99.90;;;;;;4959032;28;20461;-74
2021/06/26 11:20:06;;;;;;;7.53;6.83;;;25.90;99.90;;;;;;4956392;28;20453;-73
2021/06/26 11:22:31;;;;;;;8.23;6.87;;;25.80;99.90;;;;;;4956391;28;21341;-73
2021/06/26 11:24:57;;;;;;;6.63;6.13;;;25.90;99.90;;;;;;4944942;28;20458;-73
2021/06/26 11:27:23;;;;;;;10.20;6.80;;;25.90;99.90;;;;;;4958448;28;20601;-74
2021/06/26 11:29:50;;;;;;;6.90;6.33;;;26.00;99.90;;;;;;4956948;28;20336;-74
2021/06/26 11:32:20;;;;;;;7.80;7.00;;;26.20;99.90;;;;;;4943613;28;20509;-75
2021/06/26 11:35:03;;;;;;;7.00;6.40;;;26.30;99.90;;;;;;4938643;28;20481;-73
2021/06/26 11:37:38;;;;;;;8.17;7.47;;;26.30;99.90;;;;;;4954830;28;20470;-76
2021/06/26 11:40:19;;;;;;;7.80;6.97;;;26.50;99.90;;;;;;4958923;28;20441;-75
2021/06/26 11:42:48;;;;;;;7.70;6.90;;;26.70;99.90;;;;;;4957090;28;20448;-73
2021/06/26 11:45:15;;;;;;;7.13;6.50;;;27.00;99.90;;;;;;4960280;28;20527;-74
2021/06/26 11:47:41;;;;;;;7.30;6.70;;;27.30;99.90;;;;;;4952562;28;20454;-73
2021/06/26 11:50:18;;;;;;;6.77;6.27;;;27.70;99.90;;;;;;4960134;28;20807;-72
2021/06/26 11:52:45;;;;;;;7.33;6.63;;;28.10;99.90;;;;;;4958834;28;20450;-73
2021/06/26 11:55:12;;;;;;;8.10;7.40;;;28.50;99.90;;;;;;4957595;28;20517;-72
2021/06/26 11:57:38;;;;;;;7.63;6.47;;;28.90;99.90;;;;;;4957821;28;20971;-73
2021/06/26 12:00:07;;;;;;;7.17;6.57;;;29.40;99.90;;;;;;4959435;28;20441;-76
2021/06/26 12:02:38;;;;;;;6.07;5.67;;;29.80;99.90;;;;;;4945442;28;20975;-76
2021/06/26 12:05:05;;;;;;;7.37;6.20;;;29.90;99.90;;;;;;4955596;28;20536;-72
2021/06/26 12:07:38;;;;;;;6.70;6.13;;;29.70;99.90;;;;;;4955303;28;20553;-73
2021/06/26 12:10:06;;;;;;;7.20;6.60;;;29.80;99.90;;;;;;4960418;28;20961;-72
2021/06/26 12:12:37;;;;;;;6.93;6.33;;;29.90;99.90;;;;;;4957207;28;20481;-73
2021/06/26 12:15:08;;;;;;;6.70;6.20;;;29.60;99.90;;;;;;4960202;28;20974;-73
2021/06/26 12:17:35;;;;;;;6.70;6.20;;;29.60;99.90;;;;;;4942921;28;20513;-72
2021/06/26 12:20:06;;;;;;;6.60;6.00;;;29.50;99.90;;;;;;4963371;28;20461;-71
2021/06/26 12:22:32;;;;;;;6.13;5.60;;;30.40;98.80;;;;;;4959418;28;20517;-72
2021/06/26 12:25:08;;;;;;;7.37;6.67;;;30.40;97.90;;;;;;4960183;28;21145;-72
2021/06/26 12:27:34;;;;;;;8.97;6.50;;;30.60;98.10;;;;;;4954170;28;20461;-72
2021/06/26 12:30:03;;;;;;;7.40;6.80;;;31.00;97.50;;;;;;4954235;28;20450;-72
2021/06/26 12:32:39;;;;;;;7.50;6.70;;;32.50;95.50;;;;;;4954313;28;20241;-73
2021/06/26 12:35:07;;;;;;;6.97;6.47;;;33.50;91.10;;;;;;4959996;28;20426;-74
2021/06/26 12:37:41;;;;;;;6.73;5.93;;;33.90;90.00;;;;;;4957872;28;21647;-73
2021/06/26 12:40:21;;;;;;;6.23;5.73;;;34.60;84.10;;;;;;4953654;28;20449;-73